Airfield :







YOU CAN JOIN US ON...

 
LOGIN :

Register | Disclaimer

   EN    FR    IT 

 









Legend :    VFR   Marginal VFR   IFR   Intensive IFR   Very Intensive IFR
Visi :
Ceiling :
>= 8 km
>= 3000ft
5 to 8 km
1000 to 3000 ft
1500m to 5 km
500 to 1000 ft
800 to 1500m
200 to 500 ft
< 800m
< 200 ft
Symbols :   Thunderstorms  Fog  Heavy snow  Heavy precipitations  Wind > 20 kt






- Airport Elevation : 270 ft
- IATA code : YMX


CYMX - Montreal International Mirabel

CURRENT METAR :
  • 231800Z 24009G21KT 200V290 45SM BKN044 BKN057 14/06 A2980 RMK SC5SC2 SLP094 DENSITY ALT 400FT

EXPIRED METARs :
  • 231700Z 28006G17KT 45SM SCT035 BKN058 12/06 A2980 RMK CU3SC3 SLP095
  • 231600Z 25011G20KT 210V280 45SM BKN035 13/05 A2981 RMK CU6 SLP097

TAF TAF CYMX
Valid from the 23 at 18:00 until the 24 at 18:00 UTC


231738Z 2318/2418 24012G22KT P6SM BKN030
TEMPO 2320/2401 P6SM -SHRA
BECMG 2322/2324 24008KT
FM241000 23006KT P6SM FEW040
FM241400 23006KT P6SM -SHRA BKN030 OVC050
BECMG 2415/2417 23010G25KT RMK NXT FCST BY 240000Z



MET'MAP, your aeronautical weather chart ! - Copyright ORBIFLY December 2007 - Disclaimer

ORBIFLY MET'MAP TEAM :

Programming & Development : Alexandra Zaïnal
Concept & Development : Baudouin d'Aumeries
Co-Development & Prog : Marc-Olivier Méhu
Technical & hardware support : Manuel Goepfert

Contact : metmap@orbifly.com




SOURCES & CREDITS :

   NOAA